Time;durP1;ratioP1;P1;durP2;ratioP2;P2;SDS_P1;SDS_P2;PMS_P1;PMS_P2;Temp;Humidity;BMP_temperature;BMP_pressure;BME280_temperature;BME280_humidity;BME280_pressure;Samples;Min_cycle;Max_cycle;Signal;HPM_P1;HPM_P2
2023/08/24 00:01:17;;;;;;;12.13;6.15;;;;;;;23.72;52.13;93139.34;2068276;69;20615;-79
2023/08/24 00:03:52;;;;;;;16.38;6.20;;;;;;;23.73;51.28;93137.97;2067822;69;20149;-79
2023/08/24 00:06:20;;;;;;;14.27;6.80;;;;;;;23.74;50.87;93139.41;2064979;69;20144;-79
2023/08/24 00:08:52;;;;;;;19.52;6.43;;;;;;;23.79;50.86;93132.31;2064902;69;20214;-81
2023/08/24 00:11:22;;;;;;;11.55;6.53;;;;;;;23.55;51.84;93135.44;2067596;69;20638;-80
2023/08/24 00:13:52;;;;;;;12.93;6.35;;;;;;;23.68;51.68;93129.94;2065290;69;20137;-81
2023/08/24 00:20:10;;;;;;;16.10;6.75;;;;;;;23.67;51.90;93143.56;2068566;69;20208;-79
2023/08/24 00:22:38;;;;;;;14.23;6.30;;;;;;;23.56;52.97;93139.75;2067582;69;20218;-80
2023/08/24 00:25:05;;;;;;;15.20;6.35;;;;;;;23.46;53.65;93128.06;2064749;69;20210;-80
2023/08/24 00:27:31;;;;;;;18.85;6.40;;;;;;;23.39;54.06;93140.84;2068063;69;20153;-78
2023/08/24 00:29:57;;;;;;;15.63;6.57;;;;;;;23.16;53.33;93128.19;2064760;69;20308;-79
2023/08/24 00:36:10;;;;;;;20.75;6.38;;;;;;;23.31;53.04;93132.06;2067729;69;20131;-78
2023/08/24 00:38:36;;;;;;;16.20;6.55;;;;;;;23.36;53.05;93150.84;2066991;69;20213;-78
2023/08/24 00:41:02;;;;;;;17.17;6.68;;;;;;;23.17;54.08;93138.25;2063744;69;20175;-78
2023/08/24 00:43:28;;;;;;;16.63;6.47;;;;;;;23.23;53.37;93138.41;2068615;69;20232;-78
2023/08/24 00:45:57;;;;;;;14.95;6.40;;;;;;;23.14;52.68;93147.50;2065015;69;20168;-78
2023/08/24 00:48:25;;;;;;;18.50;6.65;;;;;;;23.20;54.10;93136.88;2067933;69;20231;-80
2023/08/24 00:50:55;;;;;;;18.33;6.50;;;;;;;23.19;55.13;93132.56;2068788;69;20128;-80
2023/08/24 00:53:25;;;;;;;17.17;6.60;;;;;;;23.12;54.90;93124.50;2065388;69;20559;-79
2023/08/24 00:55:51;;;;;;;15.38;6.55;;;;;;;22.92;54.52;93119.78;2068006;69;20141;-79
2023/08/24 00:58:17;;;;;;;14.23;6.30;;;;;;;23.07;54.19;93123.69;2065328;69;20144;-78
2023/08/24 01:00:43;;;;;;;10.65;6.13;;;;;;;22.96;54.39;93125.63;2065202;69;20504;-79
2023/08/24 01:03:10;;;;;;;14.77;6.88;;;;;;;22.98;54.16;93131.41;2065043;69;20219;-78
2023/08/24 01:05:36;;;;;;;18.08;6.72;;;;;;;22.94;54.43;93130.59;2068251;69;20654;-79
2023/08/24 01:08:03;;;;;;;11.80;6.10;;;;;;;22.88;54.85;93130.44;2068192;69;20149;-80
2023/08/24 01:14:37;;;;;;;14.60;6.20;;;;;;;22.93;54.36;93132.72;2068546;69;20140;-81
2023/08/24 01:17:07;;;;;;;15.45;6.97;;;;;;;22.99;53.33;93120.63;2065042;69;20164;-81
2023/08/24 01:19:46;;;;;;;15.18;6.65;;;;;;;23.12;53.14;93127.38;2065352;69;20133;-81
2023/08/24 01:22:27;;;;;;;15.40;6.82;;;;;;;22.86;53.31;93128.22;2068637;69;20242;-81
2023/08/24 01:25:32;;;;;;;24.02;6.75;;;;;;;22.62;54.84;93131.28;2068456;69;20145;-81
2023/08/24 01:27:59;;;;;;;17.67;6.40;;;;;;;22.83;52.85;93121.00;2068316;69;20280;-81
2023/08/24 01:30:25;;;;;;;16.38;6.32;;;;;;;22.91;53.10;93124.09;2067715;69;20152;-80
2023/08/24 01:32:52;;;;;;;14.77;6.25;;;;;;;22.95;53.78;93127.00;2064779;69;20152;-79
2023/08/24 01:35:18;;;;;;;16.95;6.28;;;;;;;22.93;54.59;93124.13;2067877;69;20179;-80
2023/08/24 01:37:47;;;;;;;16.95;6.15;;;;;;;22.90;55.97;93125.47;2065021;69;20515;-80
2023/08/24 01:40:30;;;;;;;15.30;6.45;;;;;;;22.83;55.46;93118.13;2065082;69;20156;-80
2023/08/24 01:43:05;;;;;;;17.23;6.18;;;;;;;22.77;55.38;93124.47;2067902;69;20197;-80
2023/08/24 01:45:32;;;;;;;18.13;6.10;;;;;;;22.87;54.23;93120.38;2068289;69;20155;-79
2023/08/24 01:51:47;;;;;;;14.85;6.38;;;;;;;22.83;53.06;93126.75;2068235;69;20136;-82
2023/08/24 01:54:14;;;;;;;19.88;6.10;;;;;;;22.79;52.64;93126.66;2064829;69;20605;-81
2023/08/24 01:56:39;;;;;;;14.05;6.32;;;;;;;22.79;53.66;93121.63;2068411;69;20202;-81
2023/08/24 01:59:05;;;;;;;14.10;6.47;;;;;;;22.76;54.09;93125.13;2062563;69;20181;-81
2023/08/24 02:01:30;;;;;;;17.10;7.03;;;;;;;22.78;53.78;93125.91;2065124;69;20177;-80
2023/08/24 02:03:56;;;;;;;14.80;6.60;;;;;;;22.68;53.68;93119.97;2064923;69;20187;-80
2023/08/24 02:06:26;;;;;;;13.20;6.32;;;;;;;22.68;54.98;93119.22;2064723;69;20232;-80
2023/08/24 02:08:53;;;;;;;14.10;6.47;;;;;;;22.49;55.16;93115.19;2068001;69;20177;-80
2023/08/24 02:11:19;;;;;;;14.02;6.57;;;;;;;22.43;54.41;93112.94;2068463;69;20136;-80
2023/08/24 02:13:45;;;;;;;16.42;6.90;;;;;;;22.58;54.28;93106.09;2068363;69;20149;-80
2023/08/24 02:16:12;;;;;;;15.52;6.03;;;;;;;22.57;54.94;93104.66;2067902;69;20540;-81
2023/08/24 02:18:37;;;;;;;14.90;6.88;;;;;;;22.12;55.62;93102.16;2068119;69;20164;-80
2023/08/24 02:21:11;;;;;;;17.65;6.55;;;;;;;22.45;53.99;93113.00;2067566;69;20152;-80
2023/08/24 02:23:38;;;;;;;13.50;6.18;;;;;;;22.39;54.84;93095.63;2068377;69;20148;-80
2023/08/24 02:26:05;;;;;;;17.48;6.00;;;;;;;22.46;54.57;93091.50;2068151;69;20180;-80
2023/08/24 02:28:32;;;;;;;14.20;6.07;;;;;;;22.31;54.95;93099.06;2068520;69;20156;-80
2023/08/24 02:31:02;;;;;;;14.25;6.03;;;;;;;22.50;54.82;93091.59;2068522;69;20615;-81
2023/08/24 02:33:27;;;;;;;13.40;6.03;;;;;;;22.54;54.41;93096.66;2068313;69;20239;-80
2023/08/24 02:35:53;;;;;;;12.75;5.78;;;;;;;22.52;54.51;93096.63;2068503;69;20210;-81
2023/08/24 02:38:20;;;;;;;10.77;6.35;;;;;;;22.17;55.17;93087.22;2068400;69;20210;-80
2023/08/24 02:40:48;;;;;;;14.70;6.18;;;;;;;22.25;54.96;93095.28;2067681;69;20148;-81
2023/08/24 02:43:17;;;;;;;18.07;6.30;;;;;;;22.27;54.96;93096.09;2068103;69;20175;-80
2023/08/24 02:45:43;;;;;;;15.93;6.15;;;;;;;22.28;54.64;93096.81;2064866;69;20150;-80
2023/08/24 02:48:10;;;;;;;12.55;6.20;;;;;;;22.31;54.45;93106.91;2065005;69;20614;-80
2023/08/24 02:50:37;;;;;;;17.85;6.35;;;;;;;22.15;54.79;93095.06;2062334;69;20140;-82
2023/08/24 02:53:05;;;;;;;14.85;6.68;;;;;;;22.22;54.59;93108.88;2068235;69;20145;-81
2023/08/24 02:55:32;;;;;;;15.98;6.30;;;;;;;22.07;55.27;93090.56;2068369;69;20155;-81
2023/08/24 02:57:58;;;;;;;21.00;6.72;;;;;;;22.31;54.22;93096.19;2068467;69;20140;-82
2023/08/24 03:00:24;;;;;;;14.43;6.30;;;;;;;22.20;54.86;93094.47;2068203;69;20164;-82
2023/08/24 03:02:50;;;;;;;11.95;6.00;;;;;;;22.24;53.77;93093.84;2062289;69;20145;-82
2023/08/24 03:05:16;;;;;;;21.65;6.65;;;;;;;22.31;53.19;93096.19;2067796;69;20278;-81
2023/08/24 03:07:42;;;;;;;11.18;5.43;;;;;;;22.27;53.03;93081.75;2065162;69;20160;-81
2023/08/24 03:10:09;;;;;;;15.35;6.20;;;;;;;22.43;53.08;93089.25;2065067;69;20149;-81
2023/08/24 03:12:34;;;;;;;19.30;6.68;;;;;;;22.37;53.94;93089.13;2067600;69;20562;-82
2023/08/24 03:15:00;;;;;;;16.55;6.32;;;;;;;22.24;53.36;93093.84;2065096;69;20210;-81
2023/08/24 03:21:17;;;;;;;22.27;6.57;;;;;;;22.28;54.04;93088.94;2068465;69;20143;-82
2023/08/24 03:23:43;;;;;;;19.98;6.70;;;;;;;22.25;54.53;93084.56;2064809;69;20223;-82
2023/08/24 03:26:10;;;;;;;14.75;6.35;;;;;;;22.16;54.41;93076.44;2068305;69;20178;-82
2023/08/24 03:32:23;;;;;;;13.52;5.97;;;;;;;21.94;55.57;93088.06;2067650;69;20136;-81
2023/08/24 03:34:48;;;;;;;18.35;6.47;;;;;;;21.98;55.46;93082.44;2068124;69;20152;-81
2023/08/24 03:37:16;;;;;;;20.45;7.35;;;;;;;21.88;54.67;93085.78;2064938;69;20164;-80
2023/08/24 03:39:41;;;;;;;18.67;6.00;;;;;;;22.02;54.41;93091.88;2064775;69;20528;-81
2023/08/24 03:42:08;;;;;;;16.50;6.15;;;;;;;21.79;54.91;93076.25;2068300;69;20180;-81
2023/08/24 03:44:34;;;;;;;17.60;7.00;;;;;;;21.90;55.04;93082.97;2068393;69;20205;-81
2023/08/24 03:46:59;;;;;;;16.88;6.32;;;;;;;21.86;55.69;93082.16;2068036;69;20148;-80
2023/08/24 03:49:26;;;;;;;16.00;6.25;;;;;;;21.96;54.15;93077.38;2067418;69;20164;-80
2023/08/24 03:51:51;;;;;;;24.70;6.25;;;;;;;22.06;54.66;93071.16;2064817;69;20588;-80
2023/08/24 03:58:04;;;;;;;20.00;6.50;;;;;;;21.73;55.14;93073.25;2068120;69;20136;-80
2023/08/24 04:00:30;;;;;;;12.60;6.13;;;;;;;21.81;53.82;93064.84;2067879;69;20161;-80
2023/08/24 04:02:56;;;;;;;18.65;6.75;;;;;;;21.57;56.41;93079.28;2067967;69;20218;-81
2023/08/24 04:09:12;;;;;;;17.65;6.43;;;;;;;21.69;55.28;93073.13;2066204;69;20176;-81
2023/08/24 04:11:37;;;;;;;18.60;6.65;;;;;;;21.69;55.60;93078.88;2064818;69;20145;-81
2023/08/24 04:14:03;;;;;;;17.13;6.43;;;;;;;21.77;55.06;93075.50;2068425;69;20185;-81
2023/08/24 04:16:29;;;;;;;17.25;5.90;;;;;;;21.80;54.81;93079.84;2068312;69;20137;-82
2023/08/24 04:18:54;;;;;;;20.73;6.60;;;;;;;21.80;53.29;93076.97;2064685;69;20172;-81
2023/08/24 04:21:20;;;;;;;14.85;6.75;;;;;;;21.66;54.62;93071.63;2068199;69;20136;-81
2023/08/24 04:23:46;;;;;;;20.98;6.90;;;;;;;21.61;55.18;93067.19;2068457;69;20236;-81
2023/08/24 04:26:13;;;;;;;18.80;6.50;;;;;;;21.44;55.51;93068.19;2064882;69;20137;-80
2023/08/24 04:28:38;;;;;;;20.15;6.55;;;;;;;21.31;55.57;93053.56;2068273;69;20188;-81
2023/08/24 04:31:04;;;;;;;15.65;6.45;;;;;;;21.60;55.20;93073.63;2068289;69;20159;-81
2023/08/24 04:33:29;;;;;;;15.07;6.88;;;;;;;21.42;55.69;93071.72;2068257;69;20288;-81
2023/08/24 04:35:58;;;;;;;14.65;6.55;;;;;;;21.39;56.04;93078.06;2065037;69;20125;-81
2023/08/24 04:38:24;;;;;;;15.70;7.20;;;;;;;21.50;56.01;93074.06;2068528;69;20231;-82
2023/08/24 04:40:52;;;;;;;19.02;6.55;;;;;;;21.54;56.25;93074.91;2068379;69;20271;-82
2023/08/24 04:43:19;;;;;;;22.75;7.00;;;;;;;21.58;55.75;93080.03;2068335;69;20148;-82
2023/08/24 04:45:54;;;;;;;22.27;6.68;;;;;;;21.51;56.90;93084.13;2068335;69;20164;-82
2023/08/24 04:48:25;;;;;;;18.85;6.28;;;;;;;21.62;56.88;93091.56;2068352;69;20596;-81
2023/08/24 04:50:52;;;;;;;16.02;6.15;;;;;;;21.41;57.10;93084.59;2068301;69;20154;-81
2023/08/24 04:53:19;;;;;;;17.60;6.55;;;;;;;21.40;55.79;93091.00;2068072;69;20591;-82
2023/08/24 04:55:46;;;;;;;21.48;7.05;;;;;;;21.45;56.69;93092.56;2068187;69;20233;-82
2023/08/24 04:58:13;;;;;;;17.42;6.40;;;;;;;21.35;57.09;93080.81;2068264;69;20160;-82
2023/08/24 05:00:38;;;;;;;16.88;5.90;;;;;;;21.38;56.91;93091.66;2068276;69;20149;-81
2023/08/24 05:06:51;;;;;;;18.85;6.60;;;;;;;21.54;57.18;93105.69;2068314;69;20155;-81
2023/08/24 05:09:16;;;;;;;20.33;6.18;;;;;;;21.38;56.79;93085.94;2064212;69;20188;-81
2023/08/24 05:11:43;;;;;;;19.40;6.97;;;;;;;21.48;56.54;93102.66;2064202;69;20143;-81
2023/08/24 05:14:09;;;;;;;18.10;6.28;;;;;;;21.47;56.78;93090.47;2065107;69;20149;-80
2023/08/24 05:16:35;;;;;;;17.13;6.30;;;;;;;21.48;57.79;93091.94;2064973;69;20175;-80
2023/08/24 05:19:03;;;;;;;17.20;6.20;;;;;;;21.55;57.52;93096.41;2065090;69;20144;-81
2023/08/24 05:21:28;;;;;;;22.00;8.90;;;;;;;20.93;57.85;93098.97;2064477;69;20236;-80
2023/08/24 05:23:54;;;;;;;17.00;8.05;;;;;;;21.38;56.77;93100.25;2064842;69;20153;-80
2023/08/24 05:26:24;;;;;;;23.45;9.07;;;;;;;21.42;56.97;93106.09;2064463;69;20199;-81
2023/08/24 05:28:53;;;;;;;19.33;8.60;;;;;;;21.37;57.57;93095.94;2065362;69;20144;-81
2023/08/24 05:31:19;;;;;;;19.10;7.40;;;;;;;21.47;57.12;93093.34;2065325;69;20133;-80
2023/08/24 05:33:45;;;;;;;19.33;7.35;;;;;;;21.41;57.83;93096.03;2065162;69;20560;-81
2023/08/24 05:36:12;;;;;;;18.02;7.07;;;;;;;21.51;58.04;93096.31;2064991;69;20152;-80
2023/08/24 05:38:37;;;;;;;17.60;7.00;;;;;;;21.52;58.65;93102.75;2065249;69;20219;-81
2023/08/24 05:41:03;;;;;;;28.15;7.53;;;;;;;21.47;57.81;93092.59;2065291;69;20247;-81
2023/08/24 05:43:29;;;;;;;22.30;7.65;;;;;;;21.05;58.34;93099.34;2065223;69;20153;-81
2023/08/24 05:45:56;;;;;;;17.40;6.93;;;;;;;21.28;57.78;93099.97;2064831;69;20168;-81
2023/08/24 05:48:21;;;;;;;17.65;6.85;;;;;;;21.36;58.45;93103.06;2065386;69;20210;-82
2023/08/24 05:50:47;;;;;;;17.38;6.93;;;;;;;21.62;57.35;93105.88;2065290;69;20149;-81
2023/08/24 05:53:13;;;;;;;19.65;6.78;;;;;;;21.65;57.70;93103.81;2065452;69;20160;-81
2023/08/24 05:55:39;;;;;;;20.42;6.32;;;;;;;21.65;55.84;93086.63;2064684;69;20227;-81
2023/08/24 05:58:05;;;;;;;18.77;6.57;;;;;;;21.74;55.92;93108.34;2065369;69;20173;-82
2023/08/24 06:00:30;;;;;;;21.85;6.05;;;;;;;21.80;53.95;93109.22;2065320;69;20656;-82
2023/08/24 06:02:56;;;;;;;25.50;6.43;;;;;;;21.82;55.09;93099.97;2065182;69;20215;-84
2023/08/24 06:05:22;;;;;;;19.17;6.22;;;;;;;21.74;55.18;93099.75;2065208;69;20515;-84
2023/08/24 06:07:48;;;;;;;15.55;5.28;;;;;;;21.93;54.41;93104.53;2065447;69;20244;-82
2023/08/24 06:10:14;;;;;;;19.35;5.68;;;;;;;22.06;52.79;93103.44;2068532;69;20168;-82
2023/08/24 06:12:39;;;;;;;17.85;6.55;;;;;;;21.68;54.61;93093.88;2068629;69;20623;-82
2023/08/24 06:15:09;;;;;;;19.63;7.20;;;;;;;21.62;54.92;93100.16;2068867;69;20136;-82
2023/08/24 06:17:35;;;;;;;22.35;6.60;;;;;;;21.87;55.59;93104.41;2068742;69;20172;-82
2023/08/24 06:20:03;;;;;;;17.60;7.00;;;;;;;21.94;55.59;93100.25;2068504;69;20579;-79
2023/08/24 06:22:29;;;;;;;22.10;6.35;;;;;;;21.96;56.15;93103.19;2068769;69;20140;-80
2023/08/24 06:24:59;;;;;;;15.40;6.60;;;;;;;21.91;54.87;93100.91;2070918;69;20273;-84
2023/08/24 06:27:25;;;;;;;17.08;6.93;;;;;;;22.03;55.14;93095.47;2070007;69;20206;-85
2023/08/24 06:29:51;;;;;;;25.90;6.93;;;;;;;21.92;54.68;93100.22;2066869;69;20145;-85
2023/08/24 06:32:16;;;;;;;19.20;6.55;;;;;;;22.12;53.94;93093.53;2071163;69;20622;-83
2023/08/24 06:34:42;;;;;;;22.73;7.22;;;;;;;22.04;55.31;93100.53;2068885;69;20176;-83
2023/08/24 06:37:07;;;;;;;22.92;7.50;;;;;;;22.21;54.94;93100.94;2068711;69;20230;-83
2023/08/24 06:39:33;;;;;;;17.95;7.40;;;;;;;22.19;54.26;93093.03;2068627;69;20133;-82
2023/08/24 06:41:59;;;;;;;18.98;7.20;;;;;;;22.41;54.91;93100.69;2068569;69;20715;-82
2023/08/24 06:44:25;;;;;;;17.25;6.90;;;;;;;22.58;55.06;93099.63;2065432;69;20171;-83
2023/08/24 06:46:50;;;;;;;24.23;7.90;;;;;;;22.63;54.83;93097.59;2068909;69;20228;-83
2023/08/24 06:49:16;;;;;;;19.80;7.70;;;;;;;22.94;53.49;93096.84;2068380;69;20129;-81
2023/08/24 06:51:41;;;;;;;25.60;6.75;;;;;;;23.22;54.00;93088.09;2068491;69;20145;-80
2023/08/24 06:54:07;;;;;;;19.48;6.97;;;;;;;23.37;53.46;93094.09;2068527;69;20227;-81
2023/08/24 06:56:32;;;;;;;20.60;6.32;;;;;;;23.60;53.03;93093.13;2068413;69;20145;-80
2023/08/24 06:58:59;;;;;;;21.42;6.72;;;;;;;23.75;52.96;93089.13;2068396;69;20148;-81
2023/08/24 07:01:26;;;;;;;17.65;6.15;;;;;;;23.95;51.86;93094.50;2065123;69;20148;-81
2023/08/24 07:03:52;;;;;;;21.85;6.07;;;;;;;24.06;52.41;93090.38;2068576;69;20141;-81
2023/08/24 07:06:17;;;;;;;18.83;6.15;;;;;;;24.30;52.80;93103.69;2068896;69;20136;-81
2023/08/24 07:08:43;;;;;;;22.52;6.18;;;;;;;24.49;52.35;93101.84;2068623;69;20228;-81
2023/08/24 07:11:09;;;;;;;17.90;5.80;;;;;;;24.66;52.88;93099.97;2068393;69;20137;-81
2023/08/24 07:13:34;;;;;;;17.33;5.47;;;;;;;24.92;52.41;93099.59;2068379;69;20144;-81
2023/08/24 07:16:02;;;;;;;17.10;5.95;;;;;;;25.09;51.43;93099.13;2068594;69;20140;-79
2023/08/24 07:18:29;;;;;;;24.83;5.80;;;;;;;25.32;51.22;93100.13;2068511;69;20623;-83
2023/08/24 07:20:55;;;;;;;21.42;5.45;;;;;;;25.44;51.15;93096.69;2068514;69;20739;-83
2023/08/24 07:23:20;;;;;;;15.15;4.93;;;;;;;25.72;49.28;93095.53;2069689;69;20162;-82
2023/08/24 07:25:46;;;;;;;17.10;5.18;;;;;;;25.87;48.76;93094.25;2068401;69;20148;-82
2023/08/24 07:28:11;;;;;;;21.63;6.45;;;;;;;25.83;47.61;93082.69;2065271;69;20251;-82
2023/08/24 07:30:37;;;;;;;20.95;6.13;;;;;;;25.96;46.34;93075.59;2068324;69;20147;-81
2023/08/24 07:33:03;;;;;;;24.13;6.22;;;;;;;26.38;46.67;93082.44;2062177;69;20132;-81
2023/08/24 07:35:29;;;;;;;18.45;5.35;;;;;;;26.55;46.01;93087.66;2068406;69;20220;-84
2023/08/24 07:37:56;;;;;;;23.02;5.70;;;;;;;26.59;46.64;93070.38;2068557;69;20669;-84
2023/08/24 07:40:21;;;;;;;14.35;5.38;;;;;;;26.89;47.78;93074.88;2068166;69;20206;-82
2023/08/24 07:42:52;;;;;;;24.30;5.82;;;;;;;26.87;45.34;93066.19;2068216;69;20153;-82
2023/08/24 07:45:19;;;;;;;19.20;5.90;;;;;;;27.06;45.75;93059.06;2065262;69;20137;-83
2023/08/24 07:47:47;;;;;;;18.65;6.00;;;;;;;26.64;45.33;93061.72;2068443;69;20236;-82
2023/08/24 07:50:14;;;;;;;17.40;5.38;;;;;;;27.17;43.66;93059.88;2068324;69;20532;-82
2023/08/24 07:52:40;;;;;;;17.63;5.55;;;;;;;27.18;43.29;93055.56;2068286;69;20508;-82
2023/08/24 07:55:07;;;;;;;23.50;6.43;;;;;;;27.70;42.12;93053.53;2068189;69;20222;-83
2023/08/24 07:57:36;;;;;;;22.17;6.18;;;;;;;26.99;42.73;93054.00;2068331;69;20206;-84
2023/08/24 08:03:49;;;;;;;23.77;5.95;;;;;;;27.75;43.19;93047.06;2068486;69;20119;-84
2023/08/24 08:06:16;;;;;;;21.23;5.75;;;;;;;28.11;41.37;93051.44;2068392;69;20255;-83
2023/08/24 08:08:44;;;;;;;17.75;5.32;;;;;;;28.57;39.91;93047.13;2068327;69;20210;-84
2023/08/24 08:11:10;;;;;;;20.67;5.45;;;;;;;28.61;38.58;93044.94;2068286;69;20497;-83
2023/08/24 08:13:35;;;;;;;27.25;5.80;;;;;;;28.48;38.41;93037.00;2068097;69;20217;-84
2023/08/24 08:16:07;;;;;;;20.40;5.63;;;;;;;28.96;38.03;93041.28;2068335;69;20222;-85
2023/08/24 08:18:35;;;;;;;24.00;5.53;;;;;;;29.44;38.15;93040.38;2068374;69;20229;-84
2023/08/24 08:21:08;;;;;;;17.08;5.50;;;;;;;29.19;36.74;93039.75;2068409;69;20164;-85
2023/08/24 08:23:34;;;;;;;21.65;5.90;;;;;;;29.21;36.21;93036.13;2068366;69;20512;-85
2023/08/24 08:26:01;;;;;;;21.13;5.63;;;;;;;29.62;37.42;93025.81;2064940;69;20152;-84
2023/08/24 08:28:28;;;;;;;28.10;6.30;;;;;;;29.80;35.76;93024.25;2068583;69;20206;-84
2023/08/24 08:30:54;;;;;;;16.58;5.68;;;;;;;29.65;36.76;93020.72;2068391;69;20152;-84
2023/08/24 08:33:21;;;;;;;21.35;5.97;;;;;;;30.03;35.17;93011.03;2068341;69;20136;-84
2023/08/24 08:35:47;;;;;;;23.92;5.95;;;;;;;30.67;35.80;93013.41;2068479;69;20129;-84
2023/08/24 08:38:12;;;;;;;18.83;6.10;;;;;;;30.72;35.44;93003.22;2068367;69;20148;-85
2023/08/24 08:40:41;;;;;;;19.88;5.43;;;;;;;31.09;35.09;93004.25;2068195;69;20141;-83
2023/08/24 08:43:07;;;;;;;18.27;5.70;;;;;;;31.11;33.22;93000.59;2068290;69;20164;-84
2023/08/24 08:45:33;;;;;;;17.30;5.32;;;;;;;31.56;34.22;93000.06;2068277;69;20571;-84
2023/08/24 08:48:05;;;;;;;21.15;5.65;;;;;;;31.73;32.87;92997.66;2068073;69;20160;-84
2023/08/24 08:50:33;;;;;;;27.75;5.90;;;;;;;31.43;33.24;92996.63;2068455;69;20152;-83
2023/08/24 08:52:59;;;;;;;21.67;5.45;;;;;;;31.75;33.53;92991.78;2068231;69;20647;-85
2023/08/24 08:55:25;;;;;;;20.02;5.55;;;;;;;31.90;31.20;92992.34;2064716;69;20172;-84
2023/08/24 08:57:58;;;;;;;19.52;5.60;;;;;;;31.80;31.65;92993.19;2068212;69;20596;-85
2023/08/24 09:00:24;;;;;;;;;;;;;;;32.12;31.07;92986.91;2068148;69;20183;-85
2023/08/24 09:02:52;;;;;;;24.08;5.82;;;;;;;32.14;31.52;92977.41;2068522;69;20045;-84
2023/08/24 09:05:20;;;;;;;21.90;5.32;;;;;;;32.98;31.08;92981.78;2068215;69;20232;-84
2023/08/24 09:07:48;;;;;;;21.23;4.97;;;;;;;33.20;30.53;92981.34;2065430;69;20153;-84
2023/08/24 09:10:13;;;;;;;22.15;5.25;;;;;;;33.22;31.96;92981.34;2068644;69;20136;-86
2023/08/24 09:12:39;;;;;;;18.33;5.40;;;;;;;32.94;31.38;92976.03;2068679;69;20230;-85
2023/08/24 09:15:06;;;;;;;22.92;5.65;;;;;;;32.81;31.13;92978.47;2068742;69;20329;-85
2023/08/24 09:17:33;;;;;;;26.80;5.22;;;;;;;33.12;29.80;92976.41;2068828;69;20141;-83
2023/08/24 09:20:07;;;;;;;16.63;5.20;;;;;;;33.73;30.57;92977.34;2069936;69;20198;-86
2023/08/24 09:22:37;;;;;;;22.30;5.47;;;;;;;32.58;31.65;92966.50;2067331;69;20150;-85
2023/08/24 09:25:06;;;;;;;19.33;5.32;;;;;;;33.07;31.14;92966.28;2069953;69;20596;-86
2023/08/24 09:27:32;;;;;;;13.88;4.93;;;;;;;33.71;30.97;92953.31;2068978;69;20148;-86
2023/08/24 09:29:57;;;;;;;20.60;6.03;;;;;;;34.29;29.54;92950.50;2069309;69;20144;-86
2023/08/24 09:32:31;;;;;;;22.00;5.47;;;;;;;34.08;29.96;92947.38;2069028;69;20148;-86
2023/08/24 09:35:11;;;;;;;17.38;5.10;;;;;;;34.68;29.03;92949.53;2068840;69;20149;-86
2023/08/24 09:37:38;;;;;;;16.10;5.00;;;;;;;35.31;29.41;92939.75;2068737;69;20689;-89
2023/08/24 09:40:09;;;;;;;28.17;5.97;;;;;;;35.27;27.84;92934.03;2068941;69;20238;-88
2023/08/24 09:42:39;;;;;;;17.73;5.10;;;;;;;35.17;28.26;92940.16;2069368;69;20141;-83
2023/08/24 09:45:10;;;;;;;23.02;5.57;;;;;;;34.87;27.41;92933.66;2069573;69;20200;-90
2023/08/24 09:47:36;;;;;;;19.92;4.88;;;;;;;35.89;26.27;92924.84;2067318;69;20214;-89
2023/08/24 09:50:02;;;;;;;24.33;5.97;;;;;;;34.83;27.70;92922.09;2070683;69;20224;-87
2023/08/24 09:52:32;;;;;;;17.95;4.97;;;;;;;35.64;27.37;92918.31;2070032;69;20151;-90
2023/08/24 09:55:07;;;;;;;20.30;5.00;;;;;;;35.67;26.93;92913.13;2069247;69;20161;-89
2023/08/24 09:57:39;;;;;;;24.23;5.53;;;;;;;36.56;27.64;92909.53;2070443;69;20279;-88
2023/08/24 10:00:14;;;;;;;;;;;;;;;36.38;25.67;92908.66;2070914;69;20474;-87
2023/08/24 10:02:51;;;;;;;21.70;5.40;;;;;;;36.46;27.69;92895.22;2069683;69;20535;-86
2023/08/24 10:05:23;;;;;;;22.38;5.00;;;;;;;37.85;26.07;92885.75;2068688;69;20137;-85
2023/08/24 10:07:53;;;;;;;31.67;5.60;;;;;;;37.89;26.05;92888.53;2068998;69;20137;-90
2023/08/24 10:10:21;;;;;;;22.25;4.97;;;;;;;37.05;26.11;92893.88;2068582;69;20168;-87
2023/08/24 10:12:51;;;;;;;24.17;5.13;;;;;;;37.23;25.75;92883.69;2068662;69;20608;-85
2023/08/24 10:15:18;;;;;;;24.58;5.00;;;;;;;37.05;24.56;92882.13;2068973;69;20148;-90
2023/08/24 10:17:45;;;;;;;21.20;4.65;;;;;;;37.28;26.10;92879.09;2068868;69;20172;-90
2023/08/24 10:20:11;;;;;;;23.77;5.07;;;;;;;36.75;26.33;92881.00;2068795;69;20147;-89
2023/08/24 10:22:40;;;;;;;25.73;5.30;;;;;;;36.50;26.74;92872.34;2068583;69;20617;-86
2023/08/24 10:25:07;;;;;;;23.83;5.78;;;;;;;36.06;27.57;92878.22;2068585;69;20164;-89
2023/08/24 10:27:34;;;;;;;21.92;4.95;;;;;;;37.72;26.43;92870.09;2068703;69;20206;-86
2023/08/24 10:30:01;;;;;;;24.30;4.97;;;;;;;36.69;26.71;92857.75;2068582;69;20322;-88
2023/08/24 10:32:27;;;;;;;22.85;4.57;;;;;;;38.78;22.43;92859.16;2068667;69;20171;-89
2023/08/24 10:34:53;;;;;;;21.83;4.85;;;;;;;39.22;22.58;92856.47;2068224;69;20625;-86
2023/08/24 10:37:25;;;;;;;18.63;4.72;;;;;;;39.23;25.35;92860.13;2068827;69;20520;-89
2023/08/24 10:39:51;;;;;;;19.33;4.85;;;;;;;40.23;23.46;92852.44;2068983;69;20148;-89
2023/08/24 10:42:16;;;;;;;26.23;4.78;;;;;;;41.19;21.70;92857.09;2068718;69;20515;-89
2023/08/24 10:44:46;;;;;;;26.23;4.80;;;;;;;41.97;21.39;92862.50;2068610;69;20524;-89
2023/08/24 10:47:17;;;;;;;20.30;5.18;;;;;;;43.25;20.67;92859.47;2069396;69;20298;-87
2023/08/24 10:49:56;;;;;;;21.87;4.80;;;;;;;44.23;18.48;92856.28;2068914;69;20145;-87
2023/08/24 10:52:35;;;;;;;21.20;5.00;;;;;;;43.82;18.81;92855.91;2069786;69;20168;-85
2023/08/24 10:55:03;;;;;;;16.05;4.63;;;;;;;43.93;18.77;92855.97;2072902;69;20164;-86
2023/08/24 10:57:41;;;;;;;17.17;4.60;;;;;;;44.54;17.41;92846.06;2073074;69;20191;-84
2023/08/24 11:00:11;;;;;;;24.40;4.78;;;;;;;43.37;19.38;92843.91;2067524;69;20259;-84
2023/08/24 11:02:51;;;;;;;25.80;4.53;;;;;;;42.25;20.41;92829.91;2070595;69;20171;-88
2023/08/24 11:05:24;;;;;;;20.55;4.78;;;;;;;44.88;18.33;92834.13;2072102;69;20214;-85
2023/08/24 11:07:56;;;;;;;25.88;4.78;;;;;;;46.41;16.10;92838.13;2072669;69;20140;-86
2023/08/24 11:10:24;;;;;;;21.58;4.53;;;;;;;45.59;16.08;92819.53;2070625;69;20152;-85
2023/08/24 11:13:09;;;;;;;21.67;4.13;;;;;;;46.91;16.36;92821.00;2068903;69;20137;-82
2023/08/24 11:15:54;;;;;;;24.77;4.93;;;;;;;47.28;14.49;92818.88;2068751;69;20613;-84
2023/08/24 11:18:26;;;;;;;19.55;4.20;;;;;;;49.80;14.06;92813.66;2069782;69;20242;-84
2023/08/24 11:20:53;;;;;;;23.60;4.30;;;;;;;49.66;14.30;92814.94;2069704;69;20649;-85
2023/08/24 11:23:19;;;;;;;19.38;4.13;;;;;;;50.37;13.28;92808.59;2069881;69;20286;-85
2023/08/24 11:25:47;;;;;;;21.05;4.30;;;;;;;47.37;14.48;92798.78;2068518;69;20155;-83
2023/08/24 11:28:19;;;;;;;22.23;3.92;;;;;;;49.13;14.33;92798.63;2069641;69;20132;-84
2023/08/24 11:30:46;;;;;;;21.63;4.30;;;;;;;51.39;13.42;92796.16;2070042;69;20210;-84
2023/08/24 11:33:15;;;;;;;22.65;4.30;;;;;;;51.34;13.48;92795.84;2071600;69;20124;-84
2023/08/24 11:35:43;;;;;;;30.33;4.35;;;;;;;51.70;13.29;92793.94;2068914;69;20156;-84
2023/08/24 11:38:08;;;;;;;20.77;4.05;;;;;;;52.89;12.32;92792.00;2068492;69;20152;-84
2023/08/24 11:40:34;;;;;;;20.38;4.15;;;;;;;53.39;12.19;92782.38;2068517;69;20520;-83
2023/08/24 11:43:00;;;;;;;20.73;4.32;;;;;;;53.96;11.90;92778.72;2068427;69;20160;-82
2023/08/24 11:45:33;;;;;;;19.08;4.00;;;;;;;53.94;11.44;92769.91;2068476;69;20152;-86
2023/08/24 11:48:02;;;;;;;23.73;4.57;;;;;;;52.76;11.34;92768.47;2068509;69;20222;-85
2023/08/24 11:50:28;;;;;;;18.48;4.15;;;;;;;54.86;11.87;92766.06;2068596;69;20640;-86
2023/08/24 11:52:54;;;;;;;21.60;4.15;;;;;;;54.38;10.25;92760.69;2068504;69;20220;-89
2023/08/24 11:55:24;;;;;;;26.45;4.47;;;;;;;54.25;11.33;92767.34;2068393;69;20156;-86
2023/08/24 11:57:51;;;;;;;19.27;3.67;;;;;;;54.57;11.13;92760.13;2068325;69;20151;-85
2023/08/24 12:00:19;;;;;;;21.45;4.00;;;;;;;57.15;10.17;92767.84;2068630;69;20607;-88
2023/08/24 12:02:45;;;;;;;25.20;4.10;;;;;;;57.68;9.27;92773.56;2068652;69;20152;-87
2023/08/24 12:05:24;;;;;;;18.48;3.90;;;;;;;59.27;9.14;92772.66;2065081;69;20225;-87
2023/08/24 12:07:54;;;;;;;18.20;4.57;;;;;;;55.15;10.55;92751.56;2068363;69;20141;-83